Pagina principale
METAR-TAF:

METAR-TAF

Aeroporti :

Il Cairo, Egitto

Aeroporto Internazionale del Cairo

latitudine: 30-08N, longitudine: 031-24E, altezza: 64 m

Osservazione

Il bollettino è stato emesso 28 minuti fa, alle 13:30 UTC
Vento 5 kt da nord-ovest
Temperature 23°C
Umidità 31%
Pressione 1011 hPa
Visibilità 10 km o più
nessuna nube inferiore a 1500 m e nessun cumulonembo

METAR: HECA 241330Z 32005KT CAVOK 23/05 Q1011 NOSIG

Ora: 15:58 (13:58 UTC)

Previsione

Il bollettino è stato emesso 2 ore e 58 minuti fa, alle 11:00 UTC
Previsione valida dal 24 alle 12 UTC al 25 alle 18 UTC
Vento 6 kt da nord/nord-est
Visibilità 10 km o più
Nubi sparse ad un'altezza di 2500 ft
Evoluzione graduale
dal 25 alle 00 UTC al 25 alle 03 UTC
Vento 11 kt da sud/sud-ovest

TAF: HECA 241100Z 2412/2518 02006KT 9999 SCT025 BECMG 2500/2503 20011KT

Osservazioni e previsioni meteorologiche di più di 4000 aeroporti (messaggi METAR e TAF).

Le stazioni disponibili sono rappresentate dai dischi gialli e rossi sulla carta.

Puntare il mouse per vedere il nome della stazione.

Clicca sopra per visualizzare le osservazioni e previsioni meteorologiche.

Per cambiare la mappa : fare clic sui pulsanti verdi con una croce nera per ingrandire, il pulsante verde con un trattino per diminuire, o sulla freccia verde per le mappe adiacenti.


METAR-TAF: